Time;durP1;ratioP1;P1;durP2;ratioP2;P2;SDS_P1;SDS_P2;PMS_P1;PMS_P2;Temp;Humidity;BMP_temperature;BMP_pressure;BME280_temperature;BME280_humidity;BME280_pressure;Samples;Min_cycle;Max_cycle;Signal;HPM_P1;HPM_P2
2022/10/13 00:02:09;;;;;;;12.82;7.90;;;;;;;9.00;59.18;101378.09;5089108;28;20110;-30
2022/10/13 00:04:34;;;;;;;13.38;7.68;;;;;;;8.97;59.03;101372.81;5086436;28;20024;-30
2022/10/13 00:07:00;;;;;;;16.13;8.52;;;;;;;8.94;59.22;101381.53;5086401;28;20539;-30
2022/10/13 00:09:25;;;;;;;14.35;7.88;;;;;;;8.92;59.12;101380.66;5078029;28;20511;-30
2022/10/13 00:11:50;;;;;;;12.65;7.90;;;;;;;8.90;59.26;101381.53;5102089;28;20028;-30
2022/10/13 00:14:16;;;;;;;11.52;7.38;;;;;;;8.89;59.42;101379.75;5096620;28;20107;-30
2022/10/13 00:16:41;;;;;;;13.60;7.63;;;;;;;8.85;59.25;101379.72;5089470;28;20028;-30
2022/10/13 00:19:06;;;;;;;13.10;7.30;;;;;;;8.85;59.36;101394.63;5082384;28;20020;-30
2022/10/13 00:21:32;;;;;;;12.75;7.68;;;;;;;8.81;59.88;101383.16;5090234;28;20290;-30
2022/10/13 00:23:57;;;;;;;12.38;7.32;;;;;;;8.80;59.62;101381.41;5091711;28;20111;-30
2022/10/13 00:26:24;;;;;;;12.35;7.68;;;;;;;8.78;59.69;101383.16;5090557;28;20367;-30
2022/10/13 00:28:50;;;;;;;12.75;7.57;;;;;;;8.76;59.75;101379.63;5086791;28;20483;-30
2022/10/13 00:31:15;;;;;;;11.20;6.95;;;;;;;8.73;59.93;101383.13;5089219;28;20032;-30
2022/10/13 00:33:40;;;;;;;13.27;7.53;;;;;;;8.70;60.06;101375.19;5088635;28;20028;-30
2022/10/13 00:36:06;;;;;;;11.43;7.22;;;;;;;8.70;59.89;101376.94;5071557;28;20530;-30
2022/10/13 00:38:31;;;;;;;10.85;7.82;;;;;;;8.68;59.98;101383.94;5072694;28;20578;-30
2022/10/13 00:40:57;;;;;;;11.32;6.63;;;;;;;8.66;60.29;101373.41;5091586;28;20032;-30
2022/10/13 00:43:23;;;;;;;10.77;7.05;;;;;;;8.66;60.15;101369.88;5079562;28;20015;-30
2022/10/13 00:45:49;;;;;;;11.40;7.03;;;;;;;8.63;60.24;101367.25;5083473;28;20110;-30
2022/10/13 00:48:16;;;;;;;12.40;7.07;;;;;;;8.63;60.32;101383.88;5097841;28;20107;-30
2022/10/13 00:50:42;;;;;;;11.35;7.57;;;;;;;8.62;60.22;101368.97;5069194;28;20040;-30
2022/10/13 00:53:09;;;;;;;12.15;7.20;;;;;;;8.63;60.24;101364.63;5097425;28;20177;-30
2022/10/13 00:55:36;;;;;;;11.05;6.97;;;;;;;8.59;60.32;101371.56;5088662;28;20024;-30
2022/10/13 00:58:04;;;;;;;11.95;7.28;;;;;;;8.58;60.37;101364.56;5088998;28;20497;-30
2022/10/13 01:00:30;;;;;;;10.57;6.90;;;;;;;8.57;60.15;101368.91;5054884;28;20032;-30
2022/10/13 01:02:55;;;;;;;13.43;7.78;;;;;;;8.57;60.40;101374.19;5091107;28;20024;-30
2022/10/13 01:05:21;;;;;;;10.90;7.07;;;;;;;8.55;60.52;101378.56;5088237;28;20035;-30
2022/10/13 01:07:50;;;;;;;12.05;7.50;;;;;;;8.53;60.38;101376.72;5090623;28;20047;-30
2022/10/13 01:10:26;;;;;;;12.13;7.55;;;;;;;8.54;60.40;101375.91;5092383;28;20030;-30
2022/10/13 01:13:08;;;;;;;12.82;7.80;;;;;;;8.52;60.72;101383.75;5070460;28;20095;-30
2022/10/13 01:15:41;;;;;;;14.57;7.53;;;;;;;8.51;60.51;101374.09;5078749;28;20401;-30
2022/10/13 01:18:15;;;;;;;13.13;7.97;;;;;;;8.50;60.41;101372.31;5066538;28;20111;-30
2022/10/13 01:21:07;;;;;;;12.02;7.60;;;;;;;8.49;60.52;101370.56;5069261;28;20526;-30
2022/10/13 01:23:41;;;;;;;14.02;7.82;;;;;;;8.49;60.19;101381.06;5064337;28;20028;-30
2022/10/13 01:26:44;;;;;;;14.02;7.75;;;;;;;8.46;60.56;101381.03;5072884;28;20027;-30
2022/10/13 01:29:28;;;;;;;12.23;7.82;;;;;;;8.45;60.49;101376.66;5095899;28;20087;-30
2022/10/13 01:32:06;;;;;;;13.40;7.28;;;;;;;8.45;60.64;101374.03;5081434;28;20100;-30
2022/10/13 01:35:03;;;;;;;10.63;6.70;;;;;;;8.44;60.62;101372.28;5053138;28;20028;-30
2022/10/13 01:37:54;;;;;;;12.18;7.32;;;;;;;8.42;60.84;101364.38;5101515;28;20021;-30
2022/10/13 01:40:26;;;;;;;13.48;8.05;;;;;;;8.42;60.83;101355.59;5057458;28;20024;-30
2022/10/13 01:43:16;;;;;;;12.55;7.45;;;;;;;8.42;60.72;101347.69;5080873;28;20029;-30
2022/10/13 01:46:07;;;;;;;15.10;8.02;;;;;;;8.40;60.89;101344.19;5081876;28;20406;-30
2022/10/13 01:48:35;;;;;;;14.02;7.95;;;;;;;8.40;61.27;101344.19;5077261;28;20023;-30
2022/10/13 01:51:01;;;;;;;12.25;7.50;;;;;;;8.39;61.12;101335.41;5075426;28;20174;-30
2022/10/13 01:53:27;;;;;;;13.60;7.07;;;;;;;8.37;61.53;101331.88;5071915;28;20099;-30
2022/10/13 01:55:55;;;;;;;12.85;7.70;;;;;;;8.38;61.46;101335.38;5074465;28;20024;-30
2022/10/13 01:58:22;;;;;;;13.25;7.57;;;;;;;8.38;61.95;101330.13;5094175;28;20047;-30
2022/10/13 02:01:14;;;;;;;12.75;7.97;;;;;;;8.35;62.23;101323.09;5093994;28;20073;-30
2022/10/13 02:04:13;;;;;;;12.30;7.32;;;;;;;8.36;62.47;101326.63;5093472;28;20060;-30
2022/10/13 02:06:44;;;;;;;12.98;7.53;;;;;;;8.34;62.54;101327.47;5087393;28;20030;-30
2022/10/13 02:09:17;;;;;;;11.02;7.28;;;;;;;8.36;62.79;101324.00;5084467;28;20040;-30
2022/10/13 02:11:50;;;;;;;11.65;7.40;;;;;;;8.33;62.68;101328.34;5072796;28;20024;-30
2022/10/13 02:14:21;;;;;;;14.18;8.13;;;;;;;8.32;62.45;101331.84;5090752;28;20383;-30
2022/10/13 02:16:48;;;;;;;11.60;6.95;;;;;;;8.32;62.72;101321.31;5087200;28;20084;-30
2022/10/13 02:19:15;;;;;;;13.32;7.30;;;;;;;8.33;62.83;101322.19;5078092;28;20103;-30
2022/10/13 02:21:41;;;;;;;12.63;7.60;;;;;;;8.31;63.02;101316.91;5074809;28;20436;-30
2022/10/13 02:24:07;;;;;;;12.05;7.30;;;;;;;8.29;62.75;101316.03;5074253;28;20028;-30
2022/10/13 02:26:34;;;;;;;12.15;7.15;;;;;;;8.31;62.83;101308.16;5070053;28;20020;-30
2022/10/13 02:29:06;;;;;;;11.68;7.82;;;;;;;8.30;62.40;101304.66;5056996;28;20115;-30
2022/10/13 02:31:31;;;;;;;15.35;8.10;;;;;;;8.32;62.75;101309.91;5088735;28;20024;-30
2022/10/13 02:33:57;;;;;;;14.30;7.72;;;;;;;8.31;62.65;101300.28;5098003;28;20076;-30
2022/10/13 02:36:22;;;;;;;10.65;7.15;;;;;;;8.30;62.71;101296.75;5092202;28;20390;-30
2022/10/13 02:38:48;;;;;;;11.73;7.03;;;;;;;8.29;62.48;101300.25;5093395;28;20435;-30
2022/10/13 02:41:13;;;;;;;14.77;7.27;;;;;;;8.28;62.37;101297.63;5084202;28;20025;-30
2022/10/13 02:43:38;;;;;;;12.63;7.63;;;;;;;8.27;62.43;101294.09;5072103;28;20320;-30
2022/10/13 02:46:04;;;;;;;13.00;7.00;;;;;;;8.27;62.48;101296.72;5073527;28;20056;-30
2022/10/13 02:48:29;;;;;;;13.00;7.43;;;;;;;8.27;62.66;101296.72;5094166;28;20019;-30
2022/10/13 02:50:55;;;;;;;12.00;7.53;;;;;;;8.26;62.35;101299.31;5082582;28;20127;-30
2022/10/13 02:53:20;;;;;;;11.57;6.77;;;;;;;8.24;62.32;101301.97;5093671;28;20015;-30
2022/10/13 02:55:47;;;;;;;12.30;6.63;;;;;;;8.25;62.33;101308.97;5099032;28;20297;-30
2022/10/13 02:58:12;;;;;;;11.10;7.10;;;;;;;8.24;62.28;101312.47;5104597;28;20448;-30
2022/10/13 03:00:38;;;;;;;12.57;7.68;;;;;;;8.23;62.23;101309.84;5092390;28;20019;-30
2022/10/13 03:03:04;;;;;;;12.15;7.45;;;;;;;8.21;62.15;101307.19;5094336;28;20054;-30
2022/10/13 03:05:29;;;;;;;13.93;7.20;;;;;;;8.18;62.04;101307.16;5089671;28;20386;-30
2022/10/13 03:07:54;;;;;;;12.70;7.37;;;;;;;8.19;62.03;101303.66;5094672;28;20106;-30
2022/10/13 03:10:20;;;;;;;13.23;7.40;;;;;;;8.18;62.21;101310.66;5089504;28;20286;-30
2022/10/13 03:12:45;;;;;;;12.82;7.22;;;;;;;8.15;61.86;101304.47;5090582;28;20024;-30
2022/10/13 03:15:10;;;;;;;12.00;7.03;;;;;;;8.15;62.17;101309.72;5098413;28;20445;-30
2022/10/13 03:17:36;;;;;;;11.52;7.38;;;;;;;8.13;61.94;101303.59;5093738;28;20107;-30
2022/10/13 03:20:01;;;;;;;12.05;7.20;;;;;;;8.12;62.01;101302.69;5093355;28;20031;-30
2022/10/13 03:22:27;;;;;;;12.27;7.18;;;;;;;8.11;62.01;101303.56;5091945;28;20016;-30
2022/10/13 03:24:52;;;;;;;12.40;6.90;;;;;;;8.11;62.26;101300.94;5089836;28;20490;-30
2022/10/13 03:27:18;;;;;;;12.47;7.07;;;;;;;8.09;62.70;101303.56;5093930;28;20031;-30
2022/10/13 03:29:43;;;;;;;11.65;6.85;;;;;;;8.08;62.50;101296.50;5072265;28;20289;-30
2022/10/13 03:32:08;;;;;;;12.95;6.90;;;;;;;8.06;62.66;101295.63;5107244;28;20019;-30
2022/10/13 03:34:34;;;;;;;13.07;7.15;;;;;;;8.07;62.90;101301.78;5096499;28;20545;-30
2022/10/13 03:36:59;;;;;;;12.38;7.40;;;;;;;8.04;63.22;101302.59;5092541;28;20055;-30
2022/10/13 03:39:24;;;;;;;12.55;7.53;;;;;;;8.03;62.99;101298.22;5090486;28;20036;-30
2022/10/13 03:41:50;;;;;;;13.60;7.40;;;;;;;8.02;63.23;101293.84;5090002;28;20026;-30
2022/10/13 03:44:15;;;;;;;11.00;7.13;;;;;;;8.00;63.68;101292.06;5090395;28;20032;-30
2022/10/13 03:46:40;;;;;;;12.18;7.60;;;;;;;8.00;63.68;101300.81;5082664;28;20085;-30
2022/10/13 03:49:06;;;;;;;13.52;7.60;;;;;;;7.99;63.67;101299.06;5086762;28;20461;-30
2022/10/13 03:51:31;;;;;;;12.10;7.53;;;;;;;8.00;64.42;101289.44;5094918;28;20265;-30
2022/10/13 03:53:57;;;;;;;13.15;7.15;;;;;;;7.99;63.89;101293.81;5085213;28;20024;-30
2022/10/13 03:56:24;;;;;;;11.95;7.65;;;;;;;7.99;64.23;101285.03;5089315;28;20133;-30
2022/10/13 03:58:53;;;;;;;12.75;7.25;;;;;;;7.98;64.43;101281.53;5072349;28;20031;-30
2022/10/13 04:01:19;;;;;;;13.70;7.13;;;;;;;7.97;64.90;101277.13;5087872;28;20028;-30
2022/10/13 04:03:45;;;;;;;13.82;7.93;;;;;;;7.97;64.52;101285.00;5087441;28;20036;-30
2022/10/13 04:06:10;;;;;;;12.48;7.32;;;;;;;7.97;65.16;101287.63;5089002;28;20043;-30
2022/10/13 04:08:35;;;;;;;11.15;6.88;;;;;;;7.96;65.00;101275.38;5098292;28;20020;-30
2022/10/13 04:11:07;;;;;;;11.70;7.00;;;;;;;7.95;65.31;101269.25;5090826;28;20032;-30
2022/10/13 04:13:33;;;;;;;13.05;7.53;;;;;;;7.96;65.57;101259.59;5099542;28;20272;-30
2022/10/13 04:16:03;;;;;;;14.30;7.82;;;;;;;7.94;65.41;101251.72;5085107;28;20023;-30
2022/10/13 04:18:28;;;;;;;13.27;7.63;;;;;;;7.95;65.58;101247.34;5082872;28;20024;-30
2022/10/13 04:20:54;;;;;;;16.00;8.25;;;;;;;7.94;65.35;101251.72;5070610;28;20073;-30
2022/10/13 04:23:19;;;;;;;12.73;7.05;;;;;;;7.96;65.52;101259.59;5090467;28;20059;-30
2022/10/13 04:25:45;;;;;;;12.60;7.18;;;;;;;7.96;65.30;101263.13;5093668;28;20027;-30
2022/10/13 04:28:11;;;;;;;13.77;7.07;;;;;;;7.96;65.45;101254.34;5083184;28;20017;-30
2022/10/13 04:30:36;;;;;;;13.25;7.63;;;;;;;7.96;65.40;101254.34;5083176;28;20023;-30
2022/10/13 04:33:02;;;;;;;10.77;7.47;;;;;;;7.97;65.05;101258.72;5072006;28;20027;-30
2022/10/13 04:35:27;;;;;;;13.60;7.68;;;;;;;7.98;65.37;101254.38;5064182;28;20059;-30
2022/10/13 04:37:53;;;;;;;11.85;7.28;;;;;;;7.96;65.28;101257.88;5080751;28;20028;-30
2022/10/13 04:40:18;;;;;;;13.77;7.25;;;;;;;7.98;64.53;101263.16;5087925;28;20020;-30
2022/10/13 04:42:44;;;;;;;12.00;7.53;;;;;;;7.98;65.35;101260.53;5094626;28;20073;-30
2022/10/13 04:45:09;;;;;;;14.48;8.15;;;;;;;7.99;65.37;101254.41;5085835;28;20118;-30
2022/10/13 04:47:35;;;;;;;12.60;7.57;;;;;;;7.99;65.93;101253.50;5080328;28;20479;-30
2022/10/13 04:50:01;;;;;;;13.10;8.10;;;;;;;7.99;65.37;101253.50;5100352;28;20030;-30
2022/10/13 04:52:26;;;;;;;13.88;7.50;;;;;;;8.00;65.18;101240.38;5083304;28;20020;-30
2022/10/13 04:54:52;;;;;;;14.52;7.22;;;;;;;8.01;65.53;101251.78;5098917;28;20019;-30
2022/10/13 04:57:17;;;;;;;12.63;7.40;;;;;;;8.01;65.05;101249.16;5084567;28;20625;-30
2022/10/13 04:59:42;;;;;;;12.83;7.77;;;;;;;8.01;65.00;101251.78;5090636;28;20997;-30
2022/10/13 05:02:09;;;;;;;11.55;7.70;;;;;;;8.02;65.05;101253.53;5088406;28;20948;-30
2022/10/13 05:04:34;;;;;;;12.00;7.30;;;;;;;8.01;65.40;101257.94;5087552;28;20690;-30
2022/10/13 05:07:00;;;;;;;10.57;7.15;;;;;;;8.02;65.10;101254.44;5093441;28;20024;-30
2022/10/13 05:09:25;;;;;;;11.63;7.60;;;;;;;8.03;65.02;101253.56;5088746;28;20375;-30
2022/10/13 05:11:50;;;;;;;11.63;7.35;;;;;;;8.04;65.30;101251.81;5098010;28;20023;-30
2022/10/13 05:14:16;;;;;;;14.27;7.43;;;;;;;8.05;64.87;101250.94;5099667;28;20028;-30
2022/10/13 05:16:41;;;;;;;13.75;7.30;;;;;;;8.04;64.91;101247.44;5087524;28;20065;-30
2022/10/13 05:19:07;;;;;;;12.70;7.25;;;;;;;8.06;65.20;101250.97;5101088;28;20042;-30
2022/10/13 05:21:32;;;;;;;12.40;7.40;;;;;;;8.06;65.39;101256.22;5077973;28;20116;-30
2022/10/13 05:23:58;;;;;;;11.68;6.90;;;;;;;8.06;64.99;101242.19;5076862;28;20500;-30
2022/10/13 05:26:27;;;;;;;12.00;7.35;;;;;;;8.07;64.96;101251.88;5075611;28;20501;-30
2022/10/13 05:28:54;;;;;;;11.40;7.10;;;;;;;8.07;64.85;101244.84;5075744;28;20120;-30
2022/10/13 05:31:22;;;;;;;11.45;6.90;;;;;;;8.08;65.00;101243.97;5093764;28;20337;-30
2022/10/13 05:33:48;;;;;;;10.45;6.53;;;;;;;8.08;64.85;101243.09;5093510;28;20073;-30
2022/10/13 05:36:18;;;;;;;13.52;7.55;;;;;;;8.06;65.08;101245.72;5095378;28;20024;-30
2022/10/13 05:38:44;;;;;;;11.18;7.32;;;;;;;8.07;64.75;101244.84;5095852;28;20406;-30
2022/10/13 05:41:13;;;;;;;13.35;6.93;;;;;;;8.07;64.86;101252.72;5096075;28;20073;-30
2022/10/13 05:43:39;;;;;;;12.25;7.40;;;;;;;8.07;64.24;101257.97;5096045;28;20020;-30
2022/10/13 05:46:05;;;;;;;14.13;7.47;;;;;;;8.08;64.55;101259.72;5094235;28;20073;-30
2022/10/13 05:48:31;;;;;;;12.13;7.35;;;;;;;8.08;64.56;101259.72;5095416;28;20047;-30
2022/10/13 05:50:58;;;;;;;13.43;7.30;;;;;;;8.09;64.83;101256.25;5096739;28;20028;-30
2022/10/13 05:53:29;;;;;;;16.52;7.80;;;;;;;8.11;64.78;101260.66;5094304;28;20035;-30
2022/10/13 05:55:57;;;;;;;15.32;8.48;;;;;;;8.09;64.61;101255.38;5094955;28;20429;-30
2022/10/13 05:58:23;;;;;;;14.52;8.27;;;;;;;8.09;64.70;101260.63;5097228;28;20020;-30
2022/10/13 06:00:48;;;;;;;17.10;10.45;;;;;;;8.08;65.30;101259.72;5094173;28;20038;-30
2022/10/13 06:03:20;;;;;;;18.27;9.70;;;;;;;8.08;65.00;101265.00;5074523;28;20036;-30
2022/10/13 06:08:14;;;;;;;15.45;9.48;;;;;;;8.11;65.26;101265.91;5096784;28;20063;-29
2022/10/13 06:10:42;;;;;;;19.38;10.05;;;;;;;8.09;64.92;101269.41;5088786;28;20030;-29
2022/10/13 06:13:08;;;;;;;17.65;9.85;;;;;;;8.07;65.22;101265.84;5073681;28;20043;-29
2022/10/13 06:15:33;;;;;;;17.00;9.98;;;;;;;8.07;65.16;101265.84;5074946;28;20056;-29
2022/10/13 06:17:59;;;;;;;15.07;9.18;;;;;;;8.08;64.98;101265.00;5072454;28;20067;-28
2022/10/13 06:20:26;;;;;;;15.50;9.25;;;;;;;8.09;65.43;101258.91;5054626;28;20483;-27
2022/10/13 06:22:53;;;;;;;16.45;9.68;;;;;;;8.11;65.25;101258.03;5055075;28;20020;-27
2022/10/13 06:25:19;;;;;;;16.85;9.25;;;;;;;8.13;64.68;101258.94;5072737;28;20483;-28
2022/10/13 06:27:44;;;;;;;16.20;9.40;;;;;;;8.15;64.60;101254.56;5071623;28;20031;-27
2022/10/13 06:30:10;;;;;;;18.40;9.88;;;;;;;8.17;65.10;101248.44;5073918;28;20033;-27
2022/10/13 06:32:35;;;;;;;17.52;9.18;;;;;;;8.19;65.12;101246.72;5053024;28;20107;-28
2022/10/13 06:35:01;;;;;;;15.38;8.60;;;;;;;8.23;65.15;101255.50;5073315;28;20095;-27
2022/10/13 06:37:26;;;;;;;16.50;9.18;;;;;;;8.24;64.98;101241.53;5073902;28;20458;-28
2022/10/13 06:39:52;;;;;;;15.45;8.85;;;;;;;8.26;64.69;101247.66;5070357;28;20021;-29
2022/10/13 06:42:17;;;;;;;15.57;9.63;;;;;;;8.28;64.52;101231.91;5069099;28;20471;-29
2022/10/13 06:44:42;;;;;;;17.50;8.90;;;;;;;8.29;64.42;101233.66;5070220;28;20077;-29
2022/10/13 06:47:08;;;;;;;15.52;8.93;;;;;;;8.32;64.46;101238.94;5075469;28;20040;-29
2022/10/13 06:49:34;;;;;;;16.05;8.38;;;;;;;8.32;64.55;101241.59;5057001;28;20020;-29
2022/10/13 06:52:02;;;;;;;14.15;8.75;;;;;;;8.34;64.20;101229.34;5077581;28;20020;-29
2022/10/13 06:54:30;;;;;;;16.05;8.85;;;;;;;8.37;64.39;101231.13;5072163;28;20017;-29
2022/10/13 06:56:57;;;;;;;15.35;8.60;;;;;;;8.39;63.95;101232.00;5055349;28;20020;-29
2022/10/13 06:59:25;;;;;;;16.13;8.75;;;;;;;8.41;64.17;101231.13;5073390;28;20526;-29
2022/10/13 07:01:51;;;;;;;14.85;8.52;;;;;;;8.44;64.07;101225.06;5070497;28;20067;-29
2022/10/13 07:04:16;;;;;;;17.38;9.00;;;;;;;8.49;63.93;101233.84;5050042;28;20064;-29
2022/10/13 07:06:42;;;;;;;15.70;9.38;;;;;;;8.51;63.79;101231.25;5070373;28;20024;-29
2022/10/13 07:09:07;;;;;;;16.88;8.88;;;;;;;8.54;64.07;101224.28;5071291;28;20016;-29
2022/10/13 07:11:34;;;;;;;17.58;9.18;;;;;;;8.57;63.78;101219.03;5070958;28;20055;-29
2022/10/13 07:14:00;;;;;;;15.48;8.48;;;;;;;8.62;63.59;101219.09;5066892;28;20037;-29
2022/10/13 07:16:26;;;;;;;16.75;9.40;;;;;;;8.64;63.78;101227.84;5064690;28;20028;-29
2022/10/13 07:18:51;;;;;;;14.85;8.38;;;;;;;8.67;63.71;101217.38;5072752;28;20025;-28
2022/10/13 07:21:16;;;;;;;14.77;8.48;;;;;;;8.71;63.97;101216.50;5070662;28;20031;-29
2022/10/13 07:23:42;;;;;;;15.10;8.20;;;;;;;8.75;63.88;101213.91;5063970;28;20031;-29
2022/10/13 07:26:10;;;;;;;14.40;8.27;;;;;;;8.78;64.03;101217.47;5070015;28;20426;-29
2022/10/13 07:28:36;;;;;;;16.02;8.88;;;;;;;8.83;63.85;101218.38;5068809;28;20028;-29
2022/10/13 07:31:15;;;;;;;17.05;8.27;;;;;;;8.88;64.28;101222.78;5069058;28;20028;-29
2022/10/13 07:33:42;;;;;;;13.77;7.80;;;;;;;8.92;64.18;101217.56;5038518;28;20090;-29
2022/10/13 07:36:09;;;;;;;15.05;8.40;;;;;;;8.98;64.00;101233.34;5067207;28;20036;-29
2022/10/13 07:38:35;;;;;;;15.70;8.63;;;;;;;9.03;64.24;101225.50;5050794;28;20036;-29
2022/10/13 07:41:02;;;;;;;14.50;8.30;;;;;;;9.08;64.27;101226.44;5066353;28;20094;-29
2022/10/13 07:43:27;;;;;;;13.55;7.85;;;;;;;9.15;63.94;101223.81;5072395;28;20056;-29
2022/10/13 07:45:53;;;;;;;16.85;8.38;;;;;;;9.20;64.15;101216.81;5070156;28;20052;-29
2022/10/13 07:48:18;;;;;;;15.15;7.85;;;;;;;9.24;64.17;101224.75;5066668;28;20458;-29
2022/10/13 07:50:44;;;;;;;15.80;8.30;;;;;;;9.31;64.15;101217.75;5066963;28;20063;-29
2022/10/13 07:53:09;;;;;;;16.65;8.27;;;;;;;9.36;64.26;101218.69;5066185;28;20069;-29
2022/10/13 07:55:36;;;;;;;15.20;8.07;;;;;;;9.43;64.28;101234.47;5049599;28;20036;-29
2022/10/13 08:01:25;;;;;;;13.70;7.47;;;;;;;9.59;64.88;101214.38;5064210;28;20143;-29
2022/10/13 08:03:55;;;;;;;16.10;8.85;;;;;;;9.66;64.73;101208.25;5032219;28;20047;-29
2022/10/13 08:06:20;;;;;;;16.15;7.93;;;;;;;9.71;65.00;101209.13;5067738;28;20035;-29
2022/10/13 08:08:46;;;;;;;;;;;;;;;9.79;65.34;101201.25;5070740;28;20032;-29
2022/10/13 08:11:12;;;;;;;;;;;;;;;9.86;65.27;101195.13;5052098;28;20306;-29
2022/10/13 08:13:37;;;;;;;;;;;;;;;9.92;65.62;101196.91;5067931;28;19919;-30
2022/10/13 08:16:03;;;;;;;;;;;;;;;10.02;65.98;101184.63;5071514;28;19913;-29
2022/10/13 08:18:30;;;;;;;;;;;;;;;10.09;66.29;101183.75;5073136;28;19976;-29
2022/10/13 08:20:59;;;;;;;;;;;;;;;10.16;66.17;101181.09;5054897;28;19966;-29
2022/10/13 08:23:24;;;;;;;;;;;;;;;10.25;66.31;101178.50;5069954;28;20016;-29
2022/10/13 08:25:49;;;;;;;;;;;;;;;10.32;66.40;101177.63;5072410;28;20353;-29
2022/10/13 08:28:20;;;;;;;;;;;;;;;10.39;66.45;101167.94;5068886;28;20367;-29
2022/10/13 08:30:46;;;;;;;;;;;;;;;10.45;66.09;101169.72;5066835;28;19952;-29
2022/10/13 08:33:11;;;;;;;;;;;;;;;10.51;66.03;101169.75;5055261;28;20469;-29
2022/10/13 08:35:36;;;;;;;;;;;;;;;10.56;66.37;101167.97;5070047;28;19998;-29
2022/10/13 08:38:02;;;;;;;;;;;;;;;10.63;66.17;101164.44;5052314;28;19920;-29
2022/10/13 08:40:27;;;;;;;;;;;;;;;10.70;66.61;101165.31;5066873;28;19948;-29
2022/10/13 08:42:52;;;;;;;;;;;;;;;10.76;66.25;101160.03;5070599;28;19912;-29
2022/10/13 08:45:22;;;;;;;;;;;;;;;10.84;67.44;101160.00;5053855;28;19924;-29
2022/10/13 08:47:48;;;;;;;;;;;;;;;10.90;67.05;101162.63;5071644;28;19920;-29
2022/10/13 08:50:15;;;;;;;;;;;;;;;10.97;68.21;101166.13;5051614;28;20007;-29
2022/10/13 08:52:42;;;;;;;;;;;;;;;11.03;67.85;101163.47;5070192;28;19927;-29
2022/10/13 08:55:29;;;;;;;;;;;;;;;11.11;68.04;101167.84;5052684;28;19970;-29
2022/10/13 08:57:55;;;;;;;;;;;;;;;11.20;69.60;101169.59;5068988;28;19912;-29
2022/10/13 09:00:20;;;;;;;;;;;;;;;11.25;69.62;101173.97;5059939;28;20394;-29
2022/10/13 09:02:45;;;;;;;;;;;;;;;11.34;70.25;101178.31;5071499;28;20369;-29
2022/10/13 09:05:24;;;;;;;;;;;;;;;11.39;69.28;101175.66;5049876;28;19999;-29
2022/10/13 09:07:50;;;;;;;;;;;;;;;11.48;69.60;101180.03;5068564;28;19912;-29
2022/10/13 09:10:17;;;;;;;;;;;;;;;11.55;70.24;101190.53;5069855;28;20267;-29
2022/10/13 09:12:42;;;;;;;;;;;;;;;11.65;71.40;101188.75;5071109;28;20460;-29
2022/10/13 09:15:09;;;;;;;;;;;;;;;11.75;72.26;101180.75;5070134;28;19920;-29
2022/10/13 09:17:35;;;;;;;;;;;;;;;11.78;71.49;101186.91;5053762;28;19918;-29
2022/10/13 09:20:21;;;;;;;;;;;;;;;11.85;70.26;101177.19;5053910;28;19955;-29
2022/10/13 09:23:06;;;;;;;;;;;;;;;11.92;69.92;101175.38;5070250;28;19920;-29
2022/10/13 09:25:38;;;;;;;;;;;;;;;12.00;69.28;101185.91;5073038;28;19908;-29
2022/10/13 09:28:08;;;;;;;;;;;;;;;12.06;69.95;101185.88;5071807;28;20197;-29
2022/10/13 09:30:33;;;;;;;;;;;;;;;12.13;69.81;101181.41;5066686;28;19951;-29
2022/10/13 09:33:08;;;;;;;;;;;;;;;12.18;69.52;101177.00;5072772;28;19951;-29
2022/10/13 09:36:01;;;;;;;;;;;;;;;12.25;69.88;101183.09;5044525;28;19984;-29
2022/10/13 09:38:26;;;;;;;;;;;;;;;12.31;70.18;101178.63;5068454;28;19912;-29
2022/10/13 09:40:59;;;;;;;;;;;;;;;12.38;70.51;101179.47;5069329;28;19927;-29
2022/10/13 09:43:34;;;;;;;;;;;;;;;12.45;70.53;101175.00;5055487;28;20005;-29
2022/10/13 09:46:02;;;;;;;21.40;10.55;;;;;;;12.51;69.86;101182.00;5071197;28;19919;-28
2022/10/13 09:48:30;;;;;;;20.40;10.23;;;;;;;12.55;69.42;101171.41;5069478;28;20497;-27
2022/10/13 09:50:57;;;;;;;20.35;10.23;;;;;;;12.62;69.95;101166.03;5074092;28;20134;-28
2022/10/13 09:53:32;;;;;;;23.10;11.13;;;;;;;12.66;69.79;101171.28;5073232;28;20013;-28
2022/10/13 09:56:22;;;;;;;23.35;10.30;;;;;;;12.74;70.48;101175.63;5068287;28;20032;-28
2022/10/13 09:59:04;;;;;;;18.92;10.57;;;;;;;12.82;71.13;101168.47;5052413;28;20035;-28
2022/10/13 10:01:34;;;;;;;21.65;10.60;;;;;;;12.88;71.06;101168.41;5055795;28;20023;-27
2022/10/13 10:04:00;;;;;;;;;;;;;;;12.93;70.37;101169.25;5054183;28;19924;-28
2022/10/13 10:06:25;;;;;;;;;;;;;;;12.99;70.55;101168.28;5032161;28;19917;-27
2022/10/13 10:08:57;;;;;;;;;;;;;;;13.04;70.19;101163.81;5070031;28;20571;-28
2022/10/13 10:11:32;;;;;;;;;;;;;;;13.10;70.06;101162.84;5058536;28;19950;-27
2022/10/13 10:13:57;;;;;;;;;;;;;;;13.18;69.83;101155.69;5074429;28;20451;-28
2022/10/13 10:16:29;;;;;;;;;;;;;;;13.22;69.76;101161.84;5057741;28;19937;-27
2022/10/13 10:19:09;;;;;;;;;;;;;;;13.29;70.46;101157.34;5075183;28;20023;-28
2022/10/13 10:21:49;;;;;;;;;;;;;;;13.37;70.93;101166.06;5071678;28;19924;-27
2022/10/13 10:24:24;;;;;;;;;;;;;;;13.42;70.74;101142.16;5050949;28;19947;-28
2022/10/13 10:26:49;;;;;;;;;;;;;;;13.49;70.14;101153.59;5061450;28;19971;-28
2022/10/13 10:29:17;;;;;;;;;;;;;;;13.54;70.30;101138.50;5073252;28;20350;-28
2022/10/13 10:31:58;;;;;;;;;;;;;;;13.59;69.55;101150.81;5073755;28;19912;-28
2022/10/13 10:34:28;;;;;;;;;;;;;;;13.66;70.14;101146.28;5073573;28;19923;-28
2022/10/13 10:36:53;;;;;;;;;;;;;;;13.72;69.95;101140.91;5053975;28;19965;-28
2022/10/13 10:39:18;;;;;;;;;;;;;;;13.78;70.11;101139.94;5071122;28;19924;-28
2022/10/13 10:41:44;;;;;;;;;;;;;;;13.86;70.01;101134.50;5058140;28;19921;-28
2022/10/13 10:44:11;;;;;;;;;;;;;;;13.94;70.43;101135.25;5050480;28;19962;-28
2022/10/13 10:46:44;;;;;;;;;;;;;;;14.01;70.35;101130.75;5034678;28;19912;-27
2022/10/13 10:49:13;;;;;;;;;;;;;;;14.15;70.90;101121.66;5062691;28;19925;-27
2022/10/13 10:51:38;;;;;;;;;;;;;;;14.19;70.32;101118.94;5052877;28;19917;-28
2022/10/13 10:54:19;;;;;;;;;;;;;;;14.30;70.10;101118.75;5048118;28;19916;-28
2022/10/13 10:57:02;;;;;;;;;;;;;;;14.42;70.51;101120.31;5055815;28;20404;-28
2022/10/13 10:59:39;;;;;;;17.85;9.73;;;;;;;14.53;70.36;101120.13;5054265;28;19940;-28
2022/10/13 11:02:07;;;;;;;;;;;;;;;14.61;69.82;101114.69;5071022;28;20066;-28
2022/10/13 11:04:45;;;;;;;;;;;;;;;14.72;69.73;101114.47;5074001;28;20393;-28
2022/10/13 11:07:10;;;;;;;;;;;;;;;14.85;69.82;101104.50;5054327;28;19974;-28
2022/10/13 11:09:42;;;;;;;17.95;9.50;;;;;;;14.92;69.31;101107.91;5072098;28;20629;-27
2022/10/13 11:12:19;;;;;;;;;;;;;;;14.97;69.05;101101.59;5073430;28;19991;-28
2022/10/13 11:15:01;;;;;;;;;;;;;;;15.06;68.56;101105.84;5073529;28;20299;-28
2022/10/13 11:17:29;;;;;;;;;;;;;;;15.11;67.78;101103.09;5071445;28;19919;-28
2022/10/13 11:19:56;;;;;;;18.10;9.82;;;;;;;15.19;67.41;101097.59;5071636;28;19908;-28
2022/10/13 11:22:22;;;;;;;;;;;;;;;15.25;67.44;101094.81;5054335;28;20055;-28
2022/10/13 11:24:48;;;;;;;;;;;;;;;15.32;67.28;101090.25;5072429;28;19913;-27
2022/10/13 11:27:13;;;;;;;;;;;;;;;15.33;66.81;101081.34;5073444;28;20003;-28
2022/10/13 11:29:59;;;;;;;;;;;;;;;15.37;66.61;101088.34;5073008;28;20395;-28
2022/10/13 11:32:24;;;;;;;;;;;;;;;15.43;66.25;101082.91;5072415;28;20375;-28
2022/10/13 11:35:16;;;;;;;;;;;;;;;15.48;66.13;101081.00;5073107;28;19912;-28
2022/10/13 11:37:47;;;;;;;;;;;;;;;15.53;66.07;101078.25;5066944;28;21757;-27
2022/10/13 11:40:31;;;;;;;;;;;;;;;15.57;66.02;101073.75;5072673;28;19913;-29
2022/10/13 11:43:08;;;;;;;;;;;;;;;15.62;65.94;101072.72;5072070;28;19928;-27
2022/10/13 11:45:40;;;;;;;;;;;;;;;15.66;65.20;101062.88;5072684;28;19935;-28
2022/10/13 11:48:05;;;;;;;;;;;;;;;15.69;65.10;101065.47;5072252;28;20022;-28
2022/10/13 11:50:43;;;;;;;;;;;;;;;15.75;64.64;101054.69;5071280;28;19916;-27
2022/10/13 11:53:21;;;;;;;;;;;;;;;15.81;64.44;101050.13;5071249;28;20383;-28
2022/10/13 11:55:58;;;;;;;10.20;6.05;;;;;;;15.86;64.19;101049.09;5067963;28;20403;-28
2022/10/13 11:58:28;;;;;;;;;;;;;;;15.95;63.74;101047.09;5059214;28;20028;-27